createdAt,value
2023-04-21T00:00:09.332Z,33.67
2023-04-21T00:02:39.976Z,33.30
2023-04-21T00:05:10.702Z,33.13
2023-04-21T00:07:39.524Z,35.77
2023-04-21T00:10:09.774Z,35.70
2023-04-21T00:12:38.368Z,33.13
2023-04-21T00:15:10.017Z,31.90
2023-04-21T00:17:39.245Z,35.03
2023-04-21T00:20:10.619Z,34.80
2023-04-21T00:22:39.089Z,32.40
2023-04-21T00:25:08.749Z,33.30
2023-04-21T00:27:37.122Z,34.73
2023-04-21T00:30:09.595Z,33.57
2023-04-21T00:32:38.883Z,31.93
2023-04-21T00:35:08.194Z,35.10
2023-04-21T00:37:36.706Z,31.63
2023-04-21T00:40:06.787Z,33.23
2023-04-21T00:42:35.192Z,33.80
2023-04-21T00:45:03.793Z,34.57
2023-04-21T00:47:33.986Z,35.10
2023-04-21T00:50:03.029Z,35.83
2023-04-21T00:52:32.432Z,34.17
2023-04-21T00:55:01.456Z,35.23
2023-04-21T00:57:30.691Z,34.43
2023-04-21T00:59:59.102Z,36.53
2023-04-21T01:02:28.520Z,35.90
2023-04-21T01:04:58.487Z,36.87
2023-04-21T01:07:27.333Z,34.87
2023-04-21T01:09:56.093Z,36.37
2023-04-21T01:12:24.879Z,35.80
2023-04-21T01:14:53.257Z,33.30
2023-04-21T01:17:21.754Z,36.03
2023-04-21T01:19:51.366Z,34.97
2023-04-21T01:22:21.112Z,36.10
2023-04-21T01:24:50.592Z,38.97
2023-04-21T01:27:21.517Z,37.07
2023-04-21T01:29:52.920Z,37.90
2023-04-21T01:32:25.266Z,35.13
2023-04-21T01:34:55.059Z,37.20
2023-04-21T01:37:28.760Z,34.97
2023-04-21T01:40:00.247Z,36.27
2023-04-21T01:42:30.779Z,34.87
2023-04-21T01:45:00.134Z,36.90
2023-04-21T01:47:28.783Z,35.77
2023-04-21T01:49:57.163Z,35.90
2023-04-21T01:52:27.083Z,38.00
2023-04-21T01:54:56.456Z,36.40
2023-04-21T01:57:24.887Z,36.13
2023-04-21T01:59:53.495Z,38.60
2023-04-21T02:02:22.130Z,38.77
2023-04-21T02:04:52.558Z,38.20
2023-04-21T02:07:20.955Z,35.00
2023-04-21T02:09:50.713Z,35.07
2023-04-21T02:12:19.185Z,36.97
2023-04-21T02:14:48.259Z,37.40
2023-04-21T02:17:16.796Z,35.27
2023-04-21T02:19:45.528Z,37.73
2023-04-21T02:22:13.910Z,37.47
2023-04-21T02:24:42.369Z,37.03
2023-04-21T02:27:12.166Z,35.37
2023-04-21T02:29:40.741Z,41.47
2023-04-21T02:32:22.351Z,37.27
2023-04-21T02:34:53.726Z,39.47
2023-04-21T02:37:22.938Z,39.53
2023-04-21T02:39:54.731Z,40.53
2023-04-21T02:42:24.491Z,40.10
2023-04-21T02:44:54.059Z,37.47
2023-04-21T02:47:22.419Z,37.33
2023-04-21T02:49:50.873Z,37.17
2023-04-21T02:52:19.402Z,36.60
2023-04-21T02:54:47.830Z,34.80
2023-04-21T02:57:16.183Z,34.50
2023-04-21T02:59:46.053Z,36.27
2023-04-21T03:02:14.449Z,36.27
2023-04-21T03:04:42.955Z,34.77
2023-04-21T03:07:14.260Z,34.57
2023-04-21T03:09:42.902Z,35.13
2023-04-21T03:12:11.332Z,34.80
2023-04-21T03:14:39.729Z,35.97
2023-04-21T03:17:09.816Z,35.60
2023-04-21T03:19:38.216Z,37.67
2023-04-21T03:22:07.022Z,35.97
2023-04-21T03:24:35.520Z,36.30
2023-04-21T03:27:03.867Z,36.17
2023-04-21T03:29:32.316Z,35.73
2023-04-21T03:32:00.703Z,35.17
2023-04-21T03:34:30.561Z,39.03
2023-04-21T03:37:00.973Z,37.87
2023-04-21T03:39:29.405Z,35.63
2023-04-21T03:41:57.897Z,33.73
2023-04-21T03:44:28.752Z,35.40
2023-04-21T03:46:57.643Z,36.07
2023-04-21T03:49:26.311Z,34.20
2023-04-21T03:51:56.105Z,34.70
2023-04-21T03:54:24.417Z,33.53
2023-04-21T03:56:52.797Z,34.17
2023-04-21T03:59:21.519Z,36.43
2023-04-21T04:01:50.033Z,34.33
2023-04-21T04:04:18.805Z,34.00
2023-04-21T04:06:47.277Z,34.57
2023-04-21T04:09:17.158Z,32.53
2023-04-21T04:11:45.717Z,35.50
2023-04-21T04:14:14.108Z,36.20
2023-04-21T04:16:42.592Z,35.53
2023-04-21T04:19:11.601Z,33.83
2023-04-21T04:21:40.010Z,34.23
2023-04-21T04:24:08.970Z,34.50
2023-04-21T04:26:40.107Z,32.83
2023-04-21T04:29:10.708Z,33.53
2023-04-21T04:31:39.372Z,34.57
2023-04-21T04:34:09.769Z,33.43
2023-04-21T04:36:38.128Z,32.00
2023-04-21T04:39:08.958Z,34.70
2023-04-21T04:41:39.575Z,33.80
2023-04-21T04:44:09.018Z,34.63
2023-04-21T04:46:37.629Z,32.90
2023-04-21T04:49:06.582Z,32.57
2023-04-21T04:51:35.014Z,34.67
2023-04-21T04:54:03.439Z,36.10
2023-04-21T04:56:32.212Z,32.80
2023-04-21T04:59:01.964Z,35.27
2023-04-21T05:01:31.291Z,36.30
2023-04-21T05:04:00.066Z,33.57
2023-04-21T05:06:29.672Z,34.10
2023-04-21T05:08:58.024Z,35.00
2023-04-21T05:11:26.490Z,33.93
2023-04-21T05:13:54.908Z,35.00
2023-04-21T05:16:24.668Z,35.30
2023-04-21T05:18:54.374Z,35.57
2023-04-21T05:21:27.769Z,35.53
2023-04-21T05:23:57.075Z,36.13
2023-04-21T05:26:27.524Z,35.70
2023-04-21T05:28:56.646Z,37.13
2023-04-21T05:31:26.852Z,38.70
2023-04-21T05:33:55.375Z,38.90
2023-04-21T05:36:24.977Z,36.57
2023-04-21T05:38:54.147Z,38.60
2023-04-21T05:41:22.767Z,37.87
2023-04-21T05:43:51.148Z,37.73
2023-04-21T05:46:19.569Z,37.80
2023-04-21T05:48:49.328Z,35.97
2023-04-21T05:51:17.864Z,39.03
2023-04-21T05:53:47.270Z,36.23
2023-04-21T05:56:15.768Z,38.47
2023-04-21T05:58:44.124Z,38.77
2023-04-21T06:01:13.064Z,36.83
2023-04-21T06:03:41.633Z,38.33
2023-04-21T06:06:11.625Z,36.47
2023-04-21T06:08:40.017Z,38.70
2023-04-21T06:11:08.625Z,35.60
2023-04-21T06:13:38.593Z,38.47
2023-04-21T06:16:08.143Z,39.53
2023-04-21T06:18:36.639Z,38.10
2023-04-21T06:21:05.960Z,37.37
2023-04-21T06:23:35.767Z,38.70
2023-04-21T06:26:06.884Z,37.93
2023-04-21T06:28:36.674Z,39.37
2023-04-21T06:31:08.745Z,36.00
2023-04-21T06:33:37.910Z,41.10
2023-04-21T06:36:07.357Z,36.80
2023-04-21T06:38:37.019Z,36.67
2023-04-21T06:41:06.595Z,33.87
2023-04-21T06:43:34.972Z,35.67
2023-04-21T06:46:03.355Z,35.00
2023-04-21T06:48:31.906Z,35.53
2023-04-21T06:51:00.629Z,34.30
2023-04-21T06:53:28.983Z,35.50
2023-04-21T06:55:58.767Z,33.30
2023-04-21T06:58:27.217Z,34.77
2023-04-21T07:00:55.763Z,35.33
2023-04-21T07:03:24.476Z,33.60
2023-04-21T07:05:53.222Z,35.97
2023-04-21T07:08:21.601Z,34.63
2023-04-21T07:10:50.018Z,31.20
2023-04-21T07:13:19.747Z,30.47
2023-04-21T07:15:48.158Z,31.20
2023-04-21T07:18:16.652Z,27.47
2023-04-21T07:20:45.206Z,27.90
2023-04-21T07:23:13.716Z,27.87
2023-04-21T07:25:42.097Z,28.43
2023-04-21T07:28:11.063Z,29.67
2023-04-21T07:30:40.870Z,29.07
2023-04-21T07:33:09.620Z,27.90
2023-04-21T07:35:38.229Z,29.20
2023-04-21T07:38:06.770Z,30.70
2023-04-21T07:40:35.105Z,28.27
2023-04-21T07:43:03.581Z,29.63
2023-04-21T07:45:31.999Z,29.43
2023-04-21T07:48:01.878Z,27.80
2023-04-21T07:50:30.305Z,28.77
2023-04-21T07:52:58.620Z,28.87
2023-04-21T07:55:27.018Z,29.00
2023-04-21T07:57:55.914Z,25.47
2023-04-21T08:00:24.617Z,27.90
2023-04-21T08:02:53.096Z,27.83
2023-04-21T08:05:22.995Z,27.47
2023-04-21T08:07:51.494Z,26.40
2023-04-21T08:10:19.937Z,25.87
2023-04-21T08:12:48.325Z,27.90
2023-04-21T08:15:16.723Z,27.90
2023-04-21T08:17:45.892Z,29.00
2023-04-21T08:20:14.915Z,28.23
2023-04-21T08:22:47.280Z,27.50
2023-04-21T08:25:16.514Z,26.07
2023-04-21T08:27:46.070Z,27.20
2023-04-21T08:30:15.664Z,26.93
2023-04-21T08:32:44.669Z,28.20
2023-04-21T08:35:13.249Z,25.37
2023-04-21T08:37:41.788Z,27.30
2023-04-21T08:40:12.833Z,26.17
2023-04-21T08:42:41.349Z,27.30
2023-04-21T08:45:12.546Z,24.17
2023-04-21T08:47:42.747Z,25.63
2023-04-21T08:50:15.675Z,25.13
2023-04-21T08:52:44.170Z,25.20
2023-04-21T08:55:15.355Z,23.30
2023-04-21T08:57:43.891Z,26.57
2023-04-21T09:00:13.849Z,27.23
2023-04-21T09:03:00.818Z,26.00
2023-04-21T09:05:32.112Z,23.70
2023-04-21T09:08:11.989Z,24.60
2023-04-21T09:10:52.468Z,23.97
2023-04-21T09:13:23.355Z,24.90
2023-04-21T09:15:53.313Z,28.10
2023-04-21T09:18:24.167Z,27.10
2023-04-21T09:21:07.844Z,27.83
2023-04-21T09:23:48.617Z,24.30
2023-04-21T09:26:21.357Z,27.73
2023-04-21T09:28:52.028Z,25.50
2023-04-21T09:31:24.596Z,26.87
2023-04-21T09:33:59.631Z,24.07
2023-04-21T09:36:31.993Z,25.63
2023-04-21T09:39:29.029Z,23.67
2023-04-21T09:41:52.761Z,24.37
2023-04-21T09:44:22.446Z,25.07
2023-04-21T09:46:52.983Z,24.97
2023-04-21T09:49:24.983Z,24.57
2023-04-21T09:54:31.671Z,23.60
2023-04-21T09:57:05.440Z,25.50
2023-04-21T09:59:37.015Z,26.83
2023-04-21T10:02:08.213Z,26.77
2023-04-21T10:04:43.190Z,24.93
2023-04-21T10:07:12.692Z,27.80
2023-04-21T10:09:47.151Z,28.27
2023-04-21T10:12:17.382Z,25.00
2023-04-21T10:14:45.728Z,25.53
2023-04-21T10:17:15.032Z,24.37
2023-04-21T10:19:51.543Z,26.20
2023-04-21T10:22:29.737Z,22.77
2023-04-21T10:25:00.321Z,22.83
2023-04-21T10:27:39.293Z,21.77
2023-04-21T10:30:22.666Z,22.83
2023-04-21T10:33:04.703Z,23.30
2023-04-21T10:36:00.993Z,21.77
2023-04-21T10:38:36.097Z,23.27
2023-04-21T10:41:28.279Z,22.80
2023-04-21T10:43:59.625Z,21.10
2023-04-21T10:46:36.183Z,20.20
2023-04-21T10:49:09.493Z,20.10
2023-04-21T10:52:06.509Z,21.67
2023-04-21T10:54:46.438Z,20.30
2023-04-21T10:57:17.474Z,19.53
2023-04-21T10:59:49.472Z,21.40
2023-04-21T11:02:19.908Z,20.70
2023-04-21T11:04:52.814Z,19.27
2023-04-21T11:07:23.209Z,18.97
2023-04-21T11:09:59.825Z,19.60
2023-04-21T11:12:30.793Z,21.43
2023-04-21T11:15:00.859Z,19.53
2023-04-21T11:17:29.251Z,21.20
2023-04-21T11:19:58.188Z,19.63
2023-04-21T11:22:27.914Z,19.77
2023-04-21T11:24:58.598Z,19.70
2023-04-21T11:27:30.018Z,19.93
2023-04-21T11:30:00.088Z,20.23
2023-04-21T11:32:29.270Z,18.90
2023-04-21T11:34:57.857Z,19.00
2023-04-21T11:37:28.192Z,20.07
2023-04-21T11:40:00.579Z,19.27
2023-04-21T11:42:29.822Z,18.70
2023-04-21T11:45:00.689Z,18.90
2023-04-21T11:47:30.191Z,19.57
2023-04-21T11:50:00.554Z,18.67
2023-04-21T11:52:32.892Z,18.40
2023-04-21T11:55:03.111Z,18.43
2023-04-21T11:57:33.503Z,18.60
2023-04-21T12:00:07.935Z,18.30
2023-04-21T12:02:36.670Z,17.50
2023-04-21T12:05:08.093Z,17.90
2023-04-21T12:07:38.888Z,16.90
2023-04-21T12:10:12.694Z,16.23
2023-04-21T12:12:41.841Z,16.73
2023-04-21T12:15:13.844Z,17.13
2023-04-21T12:17:46.015Z,15.43
2023-04-21T12:20:17.638Z,15.67
2023-04-21T12:22:46.639Z,15.20
2023-04-21T12:25:15.373Z,16.60
2023-04-21T12:27:50.143Z,17.30
2023-04-21T12:30:20.537Z,16.87
2023-04-21T12:32:49.024Z,18.10
2023-04-21T12:35:17.968Z,17.57
2023-04-21T12:37:46.815Z,15.77
2023-04-21T12:40:15.288Z,15.13
2023-04-21T12:42:43.698Z,16.20
2023-04-21T12:45:13.720Z,17.20
2023-04-21T12:47:46.254Z,15.90
2023-04-21T12:50:15.719Z,17.00
2023-04-21T12:52:44.081Z,16.33
2023-04-21T12:55:13.413Z,17.00
2023-04-21T12:57:41.876Z,15.87
2023-04-21T13:00:13.037Z,14.90
2023-04-21T13:02:43.145Z,16.93
2023-04-21T13:05:13.309Z,15.63
2023-04-21T13:07:41.941Z,16.83
2023-04-21T13:10:11.443Z,16.27
2023-04-21T13:12:39.819Z,16.20
2023-04-21T13:15:10.007Z,15.70
2023-04-21T13:17:38.328Z,15.30
2023-04-21T13:20:09.531Z,15.80
2023-04-21T13:22:37.954Z,15.53
2023-04-21T13:25:07.519Z,14.90
2023-04-21T13:27:38.232Z,14.87
2023-04-21T13:30:09.786Z,12.50
2023-04-21T13:32:38.869Z,14.10
2023-04-21T13:35:10.735Z,13.33
2023-04-21T13:37:39.752Z,12.60
2023-04-21T13:40:10.949Z,12.70
2023-04-21T13:42:40.386Z,14.13
2023-04-21T13:45:10.282Z,12.50
2023-04-21T13:47:38.845Z,11.93
2023-04-21T13:50:10.507Z,12.30
2023-04-21T13:52:38.946Z,13.13
2023-04-21T13:55:08.484Z,12.30
2023-04-21T13:57:37.109Z,12.97
2023-04-21T14:00:07.037Z,11.63
2023-04-21T14:02:35.615Z,11.70
2023-04-21T14:05:04.867Z,11.70
2023-04-21T14:07:35.869Z,9.87
2023-04-21T14:10:05.080Z,11.20
2023-04-21T14:12:33.443Z,11.83
2023-04-21T14:15:01.869Z,10.53
2023-04-21T14:17:30.784Z,11.13
2023-04-21T14:19:59.331Z,11.40
2023-04-21T14:22:28.286Z,10.20
2023-04-21T14:24:58.274Z,10.30
2023-04-21T14:27:26.674Z,10.10
2023-04-21T14:29:55.124Z,10.73
2023-04-21T14:32:23.762Z,10.70
2023-04-21T14:34:53.569Z,9.70
2023-04-21T14:37:22.807Z,10.40
2023-04-21T14:39:51.306Z,9.63
2023-04-21T14:42:21.212Z,10.00
2023-04-21T14:44:49.674Z,10.00
2023-04-21T14:47:18.354Z,9.60
2023-04-21T14:49:47.275Z,10.00
2023-04-21T14:52:15.764Z,10.80
2023-04-21T14:54:44.145Z,9.17
2023-04-21T14:59:46.749Z,10.00
2023-04-21T15:02:15.846Z,10.17
2023-04-21T15:04:44.613Z,9.93
2023-04-21T15:07:13.459Z,10.43
2023-04-21T15:09:45.594Z,9.03
2023-04-21T15:12:14.723Z,10.30
2023-04-21T15:14:44.610Z,10.50
2023-04-21T15:17:13.188Z,10.23
2023-04-21T15:19:41.764Z,9.40
2023-04-21T15:22:12.156Z,9.93
2023-04-21T15:24:40.894Z,9.10
2023-04-21T15:27:09.322Z,9.33
2023-04-21T15:29:37.862Z,9.60
2023-04-21T15:32:07.918Z,9.90
2023-04-21T15:34:36.412Z,10.00
2023-04-21T15:37:04.786Z,9.40
2023-04-21T15:39:33.321Z,9.07
2023-04-21T15:42:01.929Z,9.80
2023-04-21T15:44:30.334Z,8.87
2023-04-21T15:46:58.847Z,10.00
2023-04-21T15:49:28.973Z,9.80
2023-04-21T15:51:59.639Z,9.40
2023-04-21T15:54:28.142Z,9.13
2023-04-21T15:56:57.626Z,9.40
2023-04-21T15:59:26.399Z,8.73
2023-04-21T16:01:56.856Z,8.60
2023-04-21T16:04:26.000Z,9.37
2023-04-21T16:06:56.211Z,8.27
2023-04-21T16:09:24.670Z,8.90
2023-04-21T16:11:53.173Z,8.10
2023-04-21T16:14:21.799Z,10.10
2023-04-21T16:16:50.167Z,9.53
2023-04-21T16:19:18.730Z,9.00
2023-04-21T16:21:47.228Z,9.50
2023-04-21T16:24:20.308Z,10.80
2023-04-21T16:26:48.987Z,8.60
2023-04-21T16:29:17.579Z,7.97
2023-04-21T16:31:46.577Z,8.97
2023-04-21T16:34:16.241Z,8.40
2023-04-21T16:36:45.227Z,9.27
2023-04-21T16:39:13.626Z,67.67
2023-04-21T16:41:43.349Z,9.17
2023-04-21T16:44:11.745Z,9.40
2023-04-21T16:46:40.868Z,8.27
2023-04-21T16:49:09.376Z,8.23
2023-04-21T16:51:40.042Z,9.10
2023-04-21T16:54:08.485Z,8.07
2023-04-21T16:56:36.888Z,8.50
2023-04-21T16:59:08.094Z,8.67
2023-04-21T17:01:36.576Z,8.60
2023-04-21T17:04:05.537Z,8.90
2023-04-21T17:06:34.324Z,7.80
2023-04-21T17:09:02.806Z,7.80
2023-04-21T17:11:32.628Z,8.17
2023-04-21T17:14:01.136Z,6.83
2023-04-21T17:16:31.025Z,7.60
2023-04-21T17:18:59.952Z,6.90
2023-04-21T17:21:29.201Z,6.47
2023-04-21T17:23:57.719Z,6.20
2023-04-21T17:26:26.375Z,7.20
2023-04-21T17:28:54.777Z,7.20
2023-04-21T17:31:23.258Z,7.00
2023-04-21T17:33:53.519Z,6.57
2023-04-21T17:36:22.117Z,7.20
2023-04-21T17:38:51.061Z,6.77
2023-04-21T17:41:20.055Z,7.10
2023-04-21T17:43:48.447Z,7.60
2023-04-21T17:46:16.969Z,6.10
2023-04-21T17:48:45.823Z,6.43
2023-04-21T17:51:15.687Z,6.70
2023-04-21T17:53:44.139Z,6.10
2023-04-21T17:56:14.425Z,7.00
2023-04-21T17:58:42.978Z,6.20
2023-04-21T18:01:11.408Z,6.10
2023-04-21T18:03:41.408Z,6.57
2023-04-21T18:06:11.374Z,6.90
2023-04-21T18:08:41.435Z,5.00
2023-04-21T18:11:11.554Z,3.37
2023-04-21T18:13:40.001Z,4.87
2023-04-21T18:16:08.730Z,4.70
2023-04-21T18:18:37.613Z,4.53
2023-04-21T18:21:06.318Z,3.10
2023-04-21T18:23:35.797Z,3.37
2023-04-21T18:26:05.890Z,3.20
2023-04-21T18:28:34.330Z,2.60
2023-04-21T18:31:02.788Z,3.40
2023-04-21T18:33:31.282Z,3.20
2023-04-21T18:35:59.651Z,4.20
2023-04-21T18:38:28.039Z,3.30
2023-04-21T18:40:57.097Z,4.00
2023-04-21T18:43:26.946Z,3.13
2023-04-21T18:45:55.524Z,4.13
2023-04-21T18:48:23.903Z,5.37
2023-04-21T18:50:52.304Z,5.50
2023-04-21T18:53:20.726Z,4.17
2023-04-21T18:55:49.170Z,4.30
2023-04-21T18:58:17.682Z,4.90
2023-04-21T19:00:47.507Z,4.27
2023-04-21T19:03:16.138Z,4.60
2023-04-21T19:05:44.653Z,4.57
2023-04-21T19:08:12.972Z,4.80
2023-04-21T19:10:41.500Z,5.20
2023-04-21T19:13:10.324Z,5.03
2023-04-21T19:15:39.060Z,6.07
2023-04-21T19:18:08.902Z,6.77
2023-04-21T19:20:37.907Z,6.10
2023-04-21T19:23:06.354Z,6.33
2023-04-21T19:25:35.238Z,6.17
2023-04-21T19:28:04.295Z,6.83
2023-04-21T19:30:32.868Z,7.60
2023-04-21T19:33:01.338Z,6.70
2023-04-21T19:35:31.560Z,6.87
2023-04-21T19:38:00.213Z,6.30
2023-04-21T19:40:29.239Z,6.63
2023-04-21T19:42:58.670Z,6.50
2023-04-21T19:45:27.968Z,6.53
2023-04-21T19:47:56.458Z,6.87
2023-04-21T19:50:24.985Z,6.97
2023-04-21T19:52:54.854Z,8.20
2023-04-21T19:55:23.378Z,7.30
2023-04-21T19:57:52.073Z,8.30
2023-04-21T20:00:20.791Z,8.53
2023-04-21T20:02:49.353Z,7.43
2023-04-21T20:05:17.937Z,7.47
2023-04-21T20:07:46.838Z,7.13
2023-04-21T20:10:16.736Z,7.47
2023-04-21T20:12:45.184Z,7.50
2023-04-21T20:15:13.777Z,7.33
2023-04-21T20:17:42.583Z,8.17
2023-04-21T20:20:13.104Z,7.67
2023-04-21T20:22:41.642Z,8.93
2023-04-21T20:25:10.965Z,8.40
2023-04-21T20:27:40.853Z,8.30
2023-04-21T20:30:10.320Z,7.80
2023-04-21T20:32:38.721Z,7.10
2023-04-21T20:35:08.249Z,6.60
2023-04-21T20:37:37.459Z,7.20
2023-04-21T20:40:08.385Z,7.03
2023-04-21T20:42:36.865Z,6.73
2023-04-21T20:45:09.437Z,6.47
2023-04-21T20:47:38.006Z,5.97
2023-04-21T20:50:08.262Z,6.00
2023-04-21T20:52:36.759Z,6.93
2023-04-21T20:55:05.498Z,6.47
2023-04-21T20:57:34.064Z,6.07
2023-04-21T21:00:04.830Z,7.20
2023-04-21T21:02:34.781Z,5.40
2023-04-21T21:05:04.261Z,5.00
2023-04-21T21:07:33.199Z,5.10
2023-04-21T21:10:01.727Z,4.80
2023-04-21T21:12:30.159Z,4.50
2023-04-21T21:14:58.522Z,5.13
2023-04-21T21:17:26.998Z,5.10
2023-04-21T21:19:57.125Z,4.83
2023-04-21T21:22:25.546Z,6.33
2023-04-21T21:24:53.874Z,5.40
2023-04-21T21:27:22.357Z,5.70
2023-04-21T21:29:50.851Z,5.80
2023-04-21T21:32:19.239Z,5.43
2023-04-21T21:34:48.232Z,5.50
2023-04-21T21:37:18.008Z,6.07
2023-04-21T21:39:46.372Z,6.23
2023-04-21T21:42:14.772Z,6.60
2023-04-21T21:44:43.267Z,6.70
2023-04-21T21:47:11.852Z,6.13
2023-04-21T21:49:40.799Z,6.70
2023-04-21T21:52:09.321Z,7.30
2023-04-21T21:54:39.329Z,7.23
2023-04-21T21:57:07.776Z,7.50
2023-04-21T21:59:36.505Z,7.90
2023-04-21T22:02:05.490Z,6.90
2023-04-21T22:04:33.936Z,7.40
2023-04-21T22:07:03.305Z,8.27
2023-04-21T22:09:31.730Z,7.90
2023-04-21T22:12:02.117Z,8.40
2023-04-21T22:14:30.897Z,8.83
2023-04-21T22:16:59.212Z,7.60
2023-04-21T22:19:27.764Z,7.40
2023-04-21T22:21:56.546Z,8.70
2023-04-21T22:24:25.069Z,8.10
2023-04-21T22:26:53.494Z,7.97
2023-04-21T22:29:23.262Z,8.27
2023-04-21T22:31:51.801Z,7.17
2023-04-21T22:34:20.303Z,7.20
2023-04-21T22:36:48.668Z,7.43
2023-04-21T22:39:17.449Z,7.50
2023-04-21T22:41:45.972Z,7.73
2023-04-21T22:44:14.599Z,7.13
2023-04-21T22:46:44.428Z,7.40
2023-04-21T22:49:13.020Z,7.27
2023-04-21T22:51:42.277Z,6.40
2023-04-21T22:54:10.732Z,7.10
2023-04-21T22:56:39.150Z,7.90
2023-04-21T22:59:08.311Z,6.83
2023-04-21T23:01:36.696Z,6.37
2023-04-21T23:04:06.555Z,6.43
2023-04-21T23:06:35.079Z,6.00
2023-04-21T23:09:04.171Z,5.00
2023-04-21T23:11:32.684Z,5.77
2023-04-21T23:14:01.054Z,5.93
2023-04-21T23:16:29.560Z,6.20
2023-04-21T23:18:57.902Z,6.60
2023-04-21T23:21:27.675Z,6.10
2023-04-21T23:23:56.056Z,7.93
2023-04-21T23:26:26.681Z,6.40
2023-04-21T23:28:55.055Z,6.20
2023-04-21T23:31:23.513Z,6.13
2023-04-21T23:33:52.073Z,5.33
2023-04-21T23:36:20.509Z,7.33
2023-04-21T23:38:50.275Z,5.70
2023-04-21T23:41:18.690Z,6.63
2023-04-21T23:43:47.097Z,6.50
2023-04-21T23:46:16.582Z,6.47
2023-04-21T23:48:45.317Z,5.63
2023-04-21T23:51:14.007Z,5.20
2023-04-21T23:53:42.505Z,6.07
2023-04-21T23:56:12.297Z,6.27
2023-04-21T23:58:40.797Z,6.50
